Time,TemperatureF,DewpointF,PressureIn,WindDirection,WindDirectionDegrees,WindSpeedMPH,WindSpeedGustMPH,Humidity,HourlyPrecipIn,Conditions,Clouds,dailyrainin,SoftwareType,DateUTC
2013-01-07 00:03:00,35.0,31.0,30.22,West,273,1.0,3.0,84,0.01,,,0.19,,2013-01-07 05:03:00,
2013-01-07 00:12:00,35.0,31.0,30.22,West,273,1.0,3.0,84,0.01,,,0.19,,2013-01-07 05:12:00,
2013-01-07 00:22:00,35.0,30.0,30.22,WSW,245,3.0,8.0,83,0.00,,,0.18,,2013-01-07 05:22:00,
2013-01-07 00:33:00,35.0,30.0,30.23,WSW,248,4.0,6.0,83,0.00,,,0.18,,2013-01-07 05:33:00,
2013-01-07 00:42:00,35.0,30.0,30.23,WSW,248,4.0,6.0,83,0.00,,,0.18,,2013-01-07 05:42:00,
2013-01-07 00:53:00,34.0,28.0,30.24,West,259,4.0,7.0,80,0.00,,,0.18,,2013-01-07 05:53:00,
2013-01-07 01:02:00,34.0,28.0,30.24,West,261,5.0,11.0,80,0.00,,,0.18,,2013-01-07 06:02:00,
2013-01-07 01:12:00,34.0,28.0,30.24,West,261,5.0,11.0,80,0.00,,,0.18,,2013-01-07 06:12:00,
2013-01-07 01:22:00,34.0,28.0,30.26,WNW,302,5.0,10.0,79,0.00,,,0.18,,2013-01-07 06:22:00,
2013-01-07 01:32:00,33.0,28.0,30.26,NW,325,3.0,8.0,80,0.01,,,0.19,,2013-01-07 06:32:00,
2013-01-07 01:42:00,33.0,28.0,30.26,NW,325,3.0,8.0,80,0.01,,,0.19,,2013-01-07 06:42:00,
2013-01-07 01:52:00,33.0,28.0,30.27,WSW,243,5.0,9.0,80,0.01,,,0.19,,2013-01-07 06:52:00,
2013-01-07 02:02:00,33.0,28.0,30.29,WNW,290,4.0,10.0,80,0.01,,,0.19,,2013-01-07 07:02:00,
2013-01-07 02:12:00,33.0,28.0,30.29,WNW,290,4.0,10.0,80,0.01,,,0.19,,2013-01-07 07:12:00,
2013-01-07 02:22:00,33.0,28.0,30.29,West,267,4.0,10.0,80,0.01,,,0.19,,2013-01-07 07:22:00,
2013-01-07 02:33:00,33.0,28.0,30.29,West,272,3.0,6.0,81,0.00,,,0.19,,2013-01-07 07:33:00,
2013-01-07 02:42:00,33.0,28.0,30.29,West,272,3.0,6.0,81,0.00,,,0.19,,2013-01-07 07:42:00,
2013-01-07 02:53:00,33.0,28.0,30.30,SW,233,4.0,7.0,81,0.00,,,0.19,,2013-01-07 07:53:00,
2013-01-07 03:03:00,32.0,27.0,30.30,West,262,3.0,9.0,81,0.00,,,0.19,,2013-01-07 08:03:00,
2013-01-07 03:12:00,32.0,27.0,30.30,West,262,3.0,9.0,81,0.00,,,0.19,,2013-01-07 08:12:00,
2013-01-07 03:22:00,32.0,27.0,30.31,West,271,2.0,6.0,81,0.00,,,0.19,,2013-01-07 08:22:00,
2013-01-07 03:32:00,32.0,27.0,30.32,West,259,2.0,6.0,81,0.00,,,0.19,,2013-01-07 08:32:00,
2013-01-07 03:42:00,32.0,27.0,30.32,West,259,2.0,6.0,81,0.00,,,0.19,,2013-01-07 08:42:00,
2013-01-07 03:53:00,32.0,27.0,30.33,WSW,246,3.0,10.0,81,0.00,,,0.19,,2013-01-07 08:53:00,
2013-01-07 04:02:00,32.0,27.0,30.33,WNW,296,4.0,9.0,81,0.00,,,0.19,,2013-01-07 09:02:00,
2013-01-07 04:12:00,32.0,27.0,30.33,WNW,296,4.0,9.0,81,0.00,,,0.19,,2013-01-07 09:12:00,
2013-01-07 04:22:00,32.0,27.0,30.33,West,270,3.0,8.0,81,0.00,,,0.19,,2013-01-07 09:22:00,
2013-01-07 04:32:00,32.0,27.0,30.33,WSW,246,3.0,8.0,81,0.00,,,0.19,,2013-01-07 09:32:00,
2013-01-07 04:42:00,32.0,27.0,30.33,WSW,246,3.0,8.0,81,0.00,,,0.19,,2013-01-07 09:42:00,
2013-01-07 04:53:00,32.0,27.0,30.34,WSW,242,3.0,7.0,81,0.00,,,0.19,,2013-01-07 09:53:00,
2013-01-07 05:02:00,32.0,27.0,30.34,West,261,3.0,5.0,82,0.00,,,0.19,,2013-01-07 10:02:00,
2013-01-07 05:12:00,32.0,27.0,30.35,West,269,2.0,6.0,82,0.00,,,0.19,,2013-01-07 10:12:00,
2013-01-07 05:22:00,32.0,27.0,30.35,West,269,2.0,6.0,82,0.00,,,0.19,,2013-01-07 10:22:00,
2013-01-07 05:32:00,32.0,27.0,30.35,SW,236,3.0,6.0,82,0.00,,,0.19,,2013-01-07 10:32:00,
2013-01-07 05:42:00,32.0,27.0,30.35,SW,236,3.0,6.0,82,0.00,,,0.19,,2013-01-07 10:42:00,
2013-01-07 05:52:00,31.0,26.0,30.35,West,281,3.0,6.0,82,0.00,,,0.19,,2013-01-07 10:52:00,
2013-01-07 06:02:00,31.0,26.0,30.36,West,260,5.0,9.0,82,0.00,,,0.19,,2013-01-07 11:02:00,
2013-01-07 06:12:00,31.0,26.0,30.36,West,260,5.0,9.0,82,0.00,,,0.19,,2013-01-07 11:12:00,
2013-01-07 06:23:00,31.0,26.0,30.36,West,261,2.0,9.0,83,0.00,,,0.19,,2013-01-07 11:23:00,
2013-01-07 06:33:00,31.0,26.0,30.37,West,281,4.0,6.0,83,0.00,,,0.19,,2013-01-07 11:33:00,
2013-01-07 06:43:00,31.0,26.0,30.37,West,281,4.0,6.0,83,0.00,,,0.19,,2013-01-07 11:43:00,
2013-01-07 06:53:00,31.0,26.0,30.37,WSW,254,4.0,6.0,83,0.00,,,0.19,,2013-01-07 11:53:00,
2013-01-07 07:03:00,31.0,26.0,30.38,WSW,250,1.0,3.0,83,0.00,,,0.19,,2013-01-07 12:03:00,
2013-01-07 07:12:00,31.0,26.0,30.39,WSW,256,0.0,3.0,83,0.00,,,0.19,,2013-01-07 12:12:00,
2013-01-07 07:22:00,31.0,26.0,30.39,WSW,256,0.0,3.0,83,0.00,,,0.19,,2013-01-07 12:22:00,
2013-01-07 07:33:00,31.0,26.0,30.39,South,172,1.0,4.0,83,0.00,,,0.19,,2013-01-07 12:33:00,
2013-01-07 07:43:00,31.0,26.0,30.39,South,172,1.0,4.0,83,0.00,,,0.19,,2013-01-07 12:43:00,
2013-01-07 07:53:00,31.0,26.0,30.40,West,275,1.0,3.0,83,0.00,,,0.19,,2013-01-07 12:53:00,
2013-01-07 08:03:00,31.0,26.0,30.40,WSW,238,2.0,5.0,83,0.00,,,0.19,,2013-01-07 13:03:00,
2013-01-07 08:12:00,31.0,26.0,30.40,WSW,238,2.0,5.0,83,0.00,,,0.19,,2013-01-07 13:12:00,
2013-01-07 08:23:00,31.0,26.0,30.41,WSW,238,3.0,6.0,82,0.00,,,0.19,,2013-01-07 13:23:00,
2013-01-07 08:33:00,31.0,26.0,30.42,SW,232,2.0,6.0,83,0.00,,,0.19,,2013-01-07 13:33:00,
2013-01-07 08:42:00,31.0,26.0,30.42,SW,232,2.0,6.0,83,0.00,,,0.19,,2013-01-07 13:42:00,
2013-01-07 08:53:00,31.0,26.0,30.43,WSW,250,4.0,6.0,82,0.00,,,0.19,,2013-01-07 13:53:00,
2013-01-07 09:03:00,31.0,26.0,30.44,West,262,3.0,6.0,82,0.00,,,0.19,,2013-01-07 14:03:00,
2013-01-07 09:12:00,31.0,26.0,30.44,West,262,3.0,6.0,82,0.00,,,0.19,,2013-01-07 14:12:00,
2013-01-07 09:23:00,31.0,26.0,30.44,WSW,256,3.0,6.0,82,0.00,,,0.19,,2013-01-07 14:23:00,
2013-01-07 09:33:00,31.0,26.0,30.45,West,263,4.0,8.0,82,0.00,,,0.19,,2013-01-07 14:33:00,
2013-01-07 09:43:00,31.0,26.0,30.45,West,263,4.0,8.0,82,0.00,,,0.19,,2013-01-07 14:43:00,
2013-01-07 09:53:00,31.0,26.0,30.45,West,276,3.0,6.0,82,0.00,,,0.19,,2013-01-07 14:53:00,
2013-01-07 10:03:00,31.0,26.0,30.46,WSW,251,4.0,10.0,81,0.00,,,0.19,,2013-01-07 15:03:00,
2013-01-07 10:12:00,31.0,26.0,30.46,WSW,251,4.0,10.0,81,0.00,,,0.19,,2013-01-07 15:12:00,
2013-01-07 10:22:00,31.0,26.0,30.46,West,259,2.0,6.0,81,0.00,,,0.19,,2013-01-07 15:22:00,
2013-01-07 10:33:00,32.0,27.0,30.47,West,260,2.0,6.0,80,0.00,,,0.19,,2013-01-07 15:33:00,
2013-01-07 10:43:00,32.0,27.0,30.47,West,260,2.0,6.0,80,0.00,,,0.19,,2013-01-07 15:43:00,
2013-01-07 10:53:00,32.0,27.0,30.47,SW,231,3.0,6.0,80,0.00,,,0.19,,2013-01-07 15:53:00,
2013-01-07 11:02:00,32.0,26.0,30.47,SW,233,4.0,8.0,79,0.00,,,0.19,,2013-01-07 16:02:00,
2013-01-07 11:12:00,32.0,26.0,30.47,SW,233,4.0,8.0,79,0.00,,,0.19,,2013-01-07 16:12:00,
2013-01-07 11:22:00,32.0,26.0,30.47,SW,223,3.0,7.0,78,0.00,,,0.18,,2013-01-07 16:22:00,
2013-01-07 11:33:00,33.0,27.0,30.47,SW,236,3.0,6.0,78,0.00,,,0.18,,2013-01-07 16:33:00,
2013-01-07 11:43:00,33.0,27.0,30.47,SW,236,3.0,6.0,78,0.00,,,0.18,,2013-01-07 16:43:00,
2013-01-07 11:53:00,33.0,27.0,30.47,SW,234,2.0,5.0,78,0.00,,,0.18,,2013-01-07 16:53:00,
2013-01-07 12:03:00,33.0,27.0,30.47,West,263,4.0,7.0,77,0.00,,,0.18,,2013-01-07 17:03:00,
2013-01-07 12:12:00,33.0,27.0,30.47,West,263,4.0,7.0,77,0.00,,,0.18,,2013-01-07 17:12:00,
2013-01-07 12:23:00,34.0,28.0,30.46,SW,220,2.0,5.0,77,0.00,,,0.16,,2013-01-07 17:23:00,
2013-01-07 12:33:00,34.0,27.0,30.45,West,261,2.0,6.0,75,0.00,,,0.16,,2013-01-07 17:33:00,
2013-01-07 12:42:00,34.0,27.0,30.45,West,261,2.0,6.0,75,0.00,,,0.16,,2013-01-07 17:42:00,
2013-01-07 12:53:00,34.0,27.0,30.44,WSW,257,5.0,7.0,75,0.00,,,0.16,,2013-01-07 17:53:00,
2013-01-07 13:03:00,34.0,27.0,30.43,WSW,238,3.0,5.0,74,0.00,,,0.16,,2013-01-07 18:03:00,
2013-01-07 13:12:00,34.0,27.0,30.43,WSW,238,3.0,5.0,74,0.00,,,0.16,,2013-01-07 18:12:00,
2013-01-07 13:23:00,34.0,26.0,30.42,WSW,246,2.0,8.0,73,0.01,,,0.16,,2013-01-07 18:23:00,
2013-01-07 13:33:00,34.0,24.0,30.42,WSW,250,2.0,7.0,67,0.01,,,0.16,,2013-01-07 18:33:00,
2013-01-07 13:42:00,34.0,24.0,30.42,WSW,250,2.0,7.0,67,0.01,,,0.16,,2013-01-07 18:42:00,
2013-01-07 13:53:00,35.0,25.0,30.41,SSE,147,1.0,3.0,66,0.01,,,0.16,,2013-01-07 18:53:00,
2013-01-07 14:03:00,35.0,25.0,30.41,SE,125,1.0,4.0,66,0.01,,,0.16,,2013-01-07 19:03:00,
2013-01-07 14:12:00,35.0,25.0,30.41,SE,125,1.0,4.0,66,0.01,,,0.16,,2013-01-07 19:12:00,
2013-01-07 14:23:00,35.0,25.0,30.41,WSW,252,3.0,7.0,66,0.00,,,0.14,,2013-01-07 19:23:00,
2013-01-07 14:33:00,35.0,26.0,30.41,WSW,248,4.0,5.0,68,0.01,,,0.15,,2013-01-07 19:33:00,
2013-01-07 14:43:00,35.0,26.0,30.41,WSW,248,4.0,5.0,68,0.01,,,0.15,,2013-01-07 19:43:00,
2013-01-07 14:53:00,35.0,25.0,30.40,NW,315,3.0,6.0,67,0.01,,,0.15,,2013-01-07 19:53:00,
2013-01-07 15:03:00,34.0,25.0,30.40,WNW,288,2.0,5.0,68,0.01,,,0.15,,2013-01-07 20:03:00,
2013-01-07 15:12:00,34.0,25.0,30.40,WNW,288,2.0,5.0,68,0.01,,,0.15,,2013-01-07 20:12:00,
2013-01-07 15:23:00,36.0,26.0,30.40,West,277,1.0,5.0,66,0.01,,,0.13,,2013-01-07 20:23:00,
2013-01-07 15:33:00,36.0,26.0,30.40,WSW,256,0.0,6.0,66,0.01,,,0.14,,2013-01-07 20:33:00,
2013-01-07 15:42:00,36.0,26.0,30.40,WSW,256,0.0,6.0,66,0.01,,,0.14,,2013-01-07 20:42:00,
2013-01-07 15:53:00,35.0,24.0,30.40,SSE,152,1.0,7.0,64,0.01,,,0.14,,2013-01-07 20:53:00,
2013-01-07 16:03:00,35.0,24.0,30.40,South,175,2.0,7.0,65,0.01,,,0.14,,2013-01-07 21:03:00,
2013-01-07 16:12:00,35.0,24.0,30.40,South,175,2.0,7.0,65,0.01,,,0.14,,2013-01-07 21:12:00,
2013-01-07 16:23:00,35.0,25.0,30.40,WSW,238,2.0,7.0,67,0.01,,,0.12,,2013-01-07 21:23:00,
2013-01-07 16:33:00,34.0,24.0,30.40,SW,217,1.0,7.0,67,0.00,,,0.12,,2013-01-07 21:33:00,
2013-01-07 16:43:00,34.0,24.0,30.40,SW,217,1.0,7.0,67,0.00,,,0.12,,2013-01-07 21:43:00,
2013-01-07 16:53:00,34.0,25.0,30.40,SE,133,1.0,5.0,68,0.01,,,0.13,,2013-01-07 21:53:00,
2013-01-07 17:03:00,33.0,24.0,30.39,SW,229,1.0,5.0,69,0.01,,,0.13,,2013-01-07 22:03:00,
2013-01-07 17:12:00,33.0,24.0,30.39,SW,229,1.0,5.0,69,0.01,,,0.13,,2013-01-07 22:12:00,
2013-01-07 17:23:00,33.0,24.0,30.39,WSW,248,2.0,4.0,70,0.01,,,0.12,,2013-01-07 22:23:00,
2013-01-07 17:33:00,32.0,24.0,30.40,WSW,238,1.0,4.0,72,0.01,,,0.12,,2013-01-07 22:33:00,
2013-01-07 17:43:00,32.0,24.0,30.40,WSW,238,1.0,4.0,72,0.01,,,0.12,,2013-01-07 22:43:00,
2013-01-07 17:53:00,31.0,24.0,30.39,ESE,103,1.0,2.0,75,0.00,,,0.12,,2013-01-07 22:53:00,
2013-01-07 18:02:00,31.0,24.0,30.39,SE,139,3.0,8.0,75,0.00,,,0.12,,2013-01-07 23:02:00,
2013-01-07 18:12:00,31.0,24.0,30.39,SE,139,3.0,8.0,75,0.00,,,0.12,,2013-01-07 23:12:00,
2013-01-07 18:22:00,31.0,24.0,30.39,WSW,243,2.0,4.0,75,0.00,,,0.11,,2013-01-07 23:22:00,
2013-01-07 18:33:00,31.0,24.0,30.38,WNW,282,1.0,4.0,76,0.00,,,0.11,,2013-01-07 23:33:00,
2013-01-07 18:43:00,31.0,24.0,30.38,WNW,282,1.0,4.0,76,0.00,,,0.11,,2013-01-07 23:43:00,
2013-01-07 18:53:00,30.0,24.0,30.39,WSW,239,1.0,3.0,77,0.00,,,0.11,,2013-01-07 23:53:00,
2013-01-07 19:03:00,30.0,24.0,30.39,West,269,1.0,3.0,78,0.00,,,0.11,,2013-01-08 00:03:00,
2013-01-07 19:12:00,30.0,24.0,30.39,West,269,1.0,3.0,78,0.00,,,0.11,,2013-01-08 00:12:00,
2013-01-07 19:22:00,30.0,24.0,30.39,West,274,1.0,3.0,78,0.00,,,0.09,,2013-01-08 00:22:00,
2013-01-07 19:33:00,28.0,23.0,30.38,West,274,0.0,1.0,80,0.00,,,0.09,,2013-01-08 00:33:00,
2013-01-07 19:42:00,28.0,23.0,30.38,West,274,0.0,1.0,80,0.00,,,0.09,,2013-01-08 00:42:00,
2013-01-07 19:53:00,27.0,23.0,30.38,West,274,0.0,0.0,83,0.00,,,0.09,,2013-01-08 00:53:00,
2013-01-07 20:03:00,27.0,23.0,30.37,West,274,0.0,0.0,84,0.00,,,0.09,,2013-01-08 01:03:00,
2013-01-07 20:12:00,27.0,23.0,30.37,West,274,0.0,0.0,84,0.00,,,0.09,,2013-01-08 01:12:00,
2013-01-07 20:22:00,26.0,22.0,30.37,West,274,0.0,0.0,84,0.00,,,0.08,,2013-01-08 01:22:00,
2013-01-07 20:33:00,26.0,22.0,30.37,West,274,0.0,0.0,85,0.00,,,0.08,,2013-01-08 01:33:00,
2013-01-07 20:42:00,26.0,22.0,30.37,West,274,0.0,0.0,85,0.00,,,0.08,,2013-01-08 01:42:00,
2013-01-07 20:52:00,25.0,21.0,30.36,West,274,0.0,0.0,85,0.00,,,0.08,,2013-01-08 01:52:00,
2013-01-07 21:02:00,25.0,21.0,30.36,West,274,0.0,0.0,85,0.00,,,0.08,,2013-01-08 02:02:00,
2013-01-07 21:12:00,25.0,21.0,30.36,West,274,0.0,0.0,85,0.00,,,0.08,,2013-01-08 02:12:00,
2013-01-07 21:22:00,25.0,22.0,30.37,West,274,0.0,0.0,87,0.00,,,0.07,,2013-01-08 02:22:00,
2013-01-07 21:33:00,24.0,21.0,30.36,West,274,0.0,0.0,87,0.00,,,0.07,,2013-01-08 02:33:00,
2013-01-07 21:42:00,24.0,21.0,30.36,West,274,0.0,0.0,87,0.00,,,0.07,,2013-01-08 02:42:00,
2013-01-07 21:53:00,24.0,21.0,30.36,West,274,0.0,1.0,88,0.00,,,0.07,,2013-01-08 02:53:00,
2013-01-07 22:03:00,24.0,21.0,30.36,West,274,0.0,0.0,89,0.00,,,0.07,,2013-01-08 03:03:00,
2013-01-07 22:12:00,24.0,21.0,30.36,West,274,0.0,0.0,89,0.00,,,0.07,,2013-01-08 03:12:00,
2013-01-07 22:22:00,23.0,20.0,30.35,West,274,0.0,0.0,89,0.00,,,0.06,,2013-01-08 03:22:00,
2013-01-07 22:32:00,23.0,20.0,30.35,West,274,0.0,1.0,89,0.00,,,0.06,,2013-01-08 03:32:00,
2013-01-07 22:43:00,23.0,20.0,30.35,West,274,0.0,1.0,89,0.00,,,0.06,,2013-01-08 03:43:00,
2013-01-07 22:53:00,23.0,21.0,30.34,West,274,0.0,1.0,90,0.00,,,0.06,,2013-01-08 03:53:00,
2013-01-07 23:02:00,23.0,20.0,30.34,West,274,0.0,1.0,89,0.00,,,0.06,,2013-01-08 04:02:00,
2013-01-07 23:12:00,23.0,20.0,30.34,West,274,0.0,1.0,89,0.00,,,0.06,,2013-01-08 04:12:00,
2013-01-07 23:22:00,22.0,20.0,30.33,West,274,0.0,1.0,90,0.00,,,0.05,,2013-01-08 04:22:00,
2013-01-07 23:32:00,22.0,20.0,30.32,West,274,0.0,0.0,90,0.00,,,0.05,,2013-01-08 04:32:00,
2013-01-07 23:42:00,22.0,20.0,30.32,West,274,0.0,0.0,90,0.00,,,0.05,,2013-01-08 04:42:00,
2013-01-07 23:52:00,22.0,20.0,30.32,West,274,0.0,0.0,90,0.00,,,0.05,,2013-01-08 04:52:00,